Бриакан

Карта отелей и гостиниц, располагающихся рядом с аэропортом Бриакан :



Бриакан Хабаровский край 52° 19' 32.9988" N, 135° 51' 31.4388" E

Бриакан Хабаровский край 52° 19' 32.9988" N, 135° 51' 31.4388" E
Код аэродрома ИКАО: 
UHHE
Код аэродрома RU: 
УХХЕ
Координаты: 
N52.32583° E135.85873°
Превышение над уровнем моря : 
124
Основная полоса: 
02/20
Курс магнитный: 
021,1/201,1
Длина основной ВПП: 
640
Ширина основной ВПП: 
40
Покрытие основной ВПП: 
Нетвёрдое (грунт)
Тип: 
Аэродром
Освещение ВПП: 
Нет
Класс аэродрома: 
Статус: 
Действующий
Принадлежность: 
ГА
Сайт: 
E-mail аэродрома: 
Страна: 
Россия
Регион: 
Хабаровский край
Город: 
Дополнительная информация: 
Оператор площадки: компания Орлан. Базируется Ми-8 ДОСААФ. Для самолетов малопригодна. Уход на 2-ой круг с МК=021° практически невозможен.

Найти трансфер

С помощью этой формы Вы можете найти трансфер из аэропорта Бриакан в город, аэропорт или вокзал:

Карта места

Javascript is required to view this map.

Погода в аэропортах:

Авиационная погода в Ровно

Регион: 
Погода METAR: 
UKLR 210400Z 00000MPS 1500 BR NSC M03/M03 Q1020 NOSIG
Время наблюдения: 
2020-02-21T04:00:00Z
Температура C: 
-3.0
Точка росы: 
-3.0
Направление ветра: 
0
Скорость ветра: 
0
Метеорологическая видимость: 
0.93
Явления погоды: 
BR
Условия полета: 
LIFR
Аэропорт подробнее: 

Авиационная погода в Раменское

Регион: 
Погода METAR: 
UUBW 210400Z 10001MPS 5000 2100NW BR NSC M04/M04 Q1021 R30/010060 TEMPO 0500 FZFG
Время наблюдения: 
2020-02-21T04:00:00Z
Температура C: 
-4.0
Точка росы: 
-4.0
Направление ветра: 
100
Скорость ветра: 
2
Метеорологическая видимость: 
3.11
Явления погоды: 
BR
Условия полета: 
MVFR
Аэропорт подробнее: 

Авиационная погода в Кишинёве

Регион: 
Погода METAR: 
LUKK 210400Z VRB02KT 3900 BR BKN002 OVC006 04/03 Q1021 R26/D TEMPO 1800 BR OVC001
Время наблюдения: 
2020-02-21T04:00:00Z
Температура C: 
4.0
Точка росы: 
3.0
Направление ветра: 
0
Скорость ветра: 
2
Метеорологическая видимость: 
2.42
Явления погоды: 
BR
Условия полета: 
LIFR

Авиационная погода в Дашогузе

Регион: 
Погода METAR: 
UTAT 210400Z 21004KT 9999 -RA OVC100 05/01 Q1012 R08/19//60 NOSIG
Время наблюдения: 
2020-02-21T04:00:00Z
Температура C: 
5.0
Точка росы: 
1.0
Направление ветра: 
210
Скорость ветра: 
4
Метеорологическая видимость: 
6.21
Явления погоды: 
-RA
Условия полета: 
VFR